createdAt,value
2022-11-02T00:00:47.894Z,8.58
2022-11-02T00:03:15.120Z,8.59
2022-11-02T00:05:41.567Z,8.47
2022-11-02T00:08:08.059Z,8.43
2022-11-02T00:10:34.564Z,8.32
2022-11-02T00:13:01.184Z,8.30
2022-11-02T00:15:30.758Z,8.35
2022-11-02T00:18:01.459Z,8.34
2022-11-02T00:20:28.054Z,8.30
2022-11-02T00:22:57.696Z,8.35
2022-11-02T00:25:26.575Z,8.31
2022-11-02T00:27:55.455Z,8.30
2022-11-02T00:30:22.192Z,8.21
2022-11-02T00:36:36.071Z,8.20
2022-11-02T00:39:03.271Z,8.16
2022-11-02T00:41:30.890Z,8.05
2022-11-02T00:43:58.027Z,8.07
2022-11-02T00:46:24.841Z,8.00
2022-11-02T00:48:51.397Z,7.94
2022-11-02T00:51:17.947Z,7.90
2022-11-02T00:53:44.422Z,7.97
2022-11-02T00:56:11.093Z,7.99
2022-11-02T00:58:37.577Z,7.95
2022-11-02T01:01:07.811Z,8.09
2022-11-02T01:03:34.335Z,7.97
2022-11-02T01:06:08.101Z,7.86
2022-11-02T01:08:34.567Z,7.81
2022-11-02T01:11:16.300Z,7.78
2022-11-02T01:13:42.905Z,7.70
2022-11-02T01:16:10.503Z,7.63
2022-11-02T01:18:37.326Z,7.67
2022-11-02T01:21:04.131Z,7.63
2022-11-02T01:23:35.038Z,7.77
2022-11-02T01:26:09.034Z,7.70
2022-11-02T01:28:36.475Z,7.77
2022-11-02T01:31:03.177Z,7.64
2022-11-02T01:33:29.708Z,7.65
2022-11-02T01:35:56.285Z,7.53
2022-11-02T01:38:22.998Z,7.46
2022-11-02T01:40:49.487Z,7.39
2022-11-02T01:43:27.611Z,7.35
2022-11-02T01:45:58.599Z,7.26
2022-11-02T01:48:31.188Z,7.24
2022-11-02T01:50:58.767Z,7.19
2022-11-02T01:53:25.354Z,7.15
2022-11-02T01:55:52.167Z,7.14
2022-11-02T01:58:19.192Z,7.12
2022-11-02T02:00:46.099Z,7.07
2022-11-02T02:03:16.881Z,7.05
2022-11-02T02:05:55.186Z,7.13
2022-11-02T02:08:24.342Z,7.06
2022-11-02T02:10:51.544Z,7.00
2022-11-02T02:13:19.396Z,6.92
2022-11-02T02:15:55.071Z,6.92
2022-11-02T02:18:28.196Z,6.90
2022-11-02T02:21:05.065Z,7.05
2022-11-02T02:23:50.157Z,6.92
2022-11-02T02:26:29.194Z,6.94
2022-11-02T02:29:02.479Z,6.88
2022-11-02T02:31:36.218Z,6.83
2022-11-02T02:34:13.605Z,6.81
2022-11-02T02:36:52.706Z,6.80
2022-11-02T02:39:28.604Z,6.84
2022-11-02T02:41:59.861Z,6.73
2022-11-02T02:44:29.921Z,6.78
2022-11-02T02:46:59.649Z,6.83
2022-11-02T02:49:30.357Z,6.85
2022-11-02T02:51:57.736Z,6.93
2022-11-02T02:54:45.239Z,6.90
2022-11-02T02:57:18.122Z,6.83
2022-11-02T02:59:46.655Z,6.79
2022-11-02T03:02:17.718Z,6.78
2022-11-02T03:04:44.415Z,6.68
2022-11-02T03:07:12.807Z,6.70
2022-11-02T03:09:51.046Z,6.68
2022-11-02T03:12:23.641Z,6.65
2022-11-02T03:15:10.970Z,6.58
2022-11-02T03:17:47.391Z,6.62
2022-11-02T03:20:26.705Z,6.61
2022-11-02T03:23:02.581Z,6.68
2022-11-02T03:25:39.359Z,6.59
2022-11-02T03:28:17.546Z,6.58
2022-11-02T03:30:55.074Z,6.52
2022-11-02T03:33:31.954Z,6.52
2022-11-02T03:36:11.493Z,6.52
2022-11-02T03:38:52.356Z,6.50
2022-11-02T03:41:21.056Z,6.42
2022-11-02T03:43:49.241Z,6.64
2022-11-02T03:46:16.426Z,6.53
2022-11-02T03:48:45.727Z,6.59
2022-11-02T03:51:14.349Z,6.54
2022-11-02T03:54:01.069Z,6.52
2022-11-02T03:56:43.281Z,6.45
2022-11-02T03:59:09.741Z,6.43
2022-11-02T04:01:44.598Z,6.45
2022-11-02T04:04:11.558Z,6.45
2022-11-02T04:06:38.556Z,6.49
2022-11-02T04:09:05.176Z,6.58
2022-11-02T04:11:50.953Z,6.54
2022-11-02T04:14:36.150Z,6.56
2022-11-02T04:17:25.878Z,6.80
2022-11-02T04:19:52.784Z,6.67
2022-11-02T04:22:38.421Z,6.62
2022-11-02T04:25:21.317Z,6.63
2022-11-02T04:27:50.556Z,6.67
2022-11-02T04:30:18.882Z,6.57
2022-11-02T04:33:06.381Z,6.46
2022-11-02T04:35:33.695Z,6.38
2022-11-02T04:38:19.000Z,6.40
2022-11-02T04:40:45.496Z,6.45
2022-11-02T04:43:12.576Z,6.48
2022-11-02T04:45:39.088Z,6.60
2022-11-02T04:48:07.610Z,6.53
2022-11-02T04:50:35.111Z,6.41
2022-11-02T04:53:03.627Z,6.35
2022-11-02T04:55:31.097Z,6.38
2022-11-02T04:57:57.553Z,6.39
2022-11-02T05:00:24.618Z,6.65
2022-11-02T05:02:51.441Z,6.61
2022-11-02T05:05:18.352Z,6.52
2022-11-02T05:07:44.976Z,6.55
2022-11-02T05:10:11.868Z,6.43
2022-11-02T05:12:38.440Z,6.62
2022-11-02T05:15:05.657Z,6.66
2022-11-02T05:17:32.193Z,6.66
2022-11-02T05:19:58.756Z,6.49
2022-11-02T05:22:25.212Z,6.48
2022-11-02T05:24:51.871Z,6.41
2022-11-02T05:27:18.389Z,6.37
2022-11-02T05:29:44.860Z,6.37
2022-11-02T05:32:11.295Z,6.28
2022-11-02T05:34:37.726Z,6.27
2022-11-02T05:37:04.177Z,6.30
2022-11-02T05:39:30.696Z,6.28
2022-11-02T05:41:57.197Z,6.32
2022-11-02T05:44:23.657Z,6.28
2022-11-02T05:46:50.134Z,6.24
2022-11-02T05:49:16.606Z,6.42
2022-11-02T05:51:43.936Z,6.37
2022-11-02T05:54:10.578Z,6.45
2022-11-02T05:56:37.129Z,6.38
2022-11-02T05:59:08.033Z,6.29
2022-11-02T06:01:34.524Z,6.42
2022-11-02T06:04:01.313Z,6.45
2022-11-02T06:06:27.996Z,6.33
2022-11-02T06:08:54.655Z,6.53
2022-11-02T06:11:26.157Z,6.54
2022-11-02T06:13:53.343Z,6.61
2022-11-02T06:16:23.086Z,6.58
2022-11-02T06:18:49.977Z,6.53
2022-11-02T06:21:16.468Z,6.60
2022-11-02T06:23:43.282Z,6.64
2022-11-02T06:26:10.994Z,6.95
2022-11-02T06:28:37.463Z,7.05
2022-11-02T06:31:04.240Z,7.60
2022-11-02T06:33:30.663Z,8.45
2022-11-02T06:35:57.281Z,8.57
2022-11-02T06:38:24.053Z,9.12
2022-11-02T06:40:55.288Z,9.44
2022-11-02T06:43:21.991Z,9.87
2022-11-02T06:45:48.794Z,9.98
2022-11-02T06:48:15.491Z,10.10
2022-11-02T06:50:42.046Z,10.54
2022-11-02T06:53:08.615Z,10.58
2022-11-02T06:55:35.173Z,11.18
2022-11-02T06:58:01.695Z,10.97
2022-11-02T07:00:29.721Z,10.85
2022-11-02T07:03:00.799Z,10.45
2022-11-02T07:05:27.544Z,10.09
2022-11-02T07:07:54.446Z,10.15
2022-11-02T07:10:21.117Z,10.53
2022-11-02T07:12:47.638Z,9.93
2022-11-02T07:15:14.200Z,9.74
2022-11-02T07:17:41.215Z,9.26
2022-11-02T07:20:10.634Z,9.25
2022-11-02T07:22:37.631Z,9.37
2022-11-02T07:25:04.928Z,9.62
2022-11-02T07:27:31.383Z,10.11
2022-11-02T07:29:58.307Z,11.14
2022-11-02T07:32:25.719Z,12.02
2022-11-02T07:34:52.181Z,12.99
2022-11-02T07:37:18.624Z,13.60
2022-11-02T07:39:45.107Z,13.19
2022-11-02T07:42:11.651Z,14.11
2022-11-02T07:44:38.926Z,15.00
2022-11-02T07:47:05.534Z,15.97
2022-11-02T07:49:31.960Z,15.64
2022-11-02T07:51:58.408Z,16.04
2022-11-02T07:54:26.456Z,17.12
2022-11-02T07:56:53.030Z,17.65
2022-11-02T07:59:19.484Z,18.08
2022-11-02T08:01:45.978Z,17.95
2022-11-02T08:04:12.714Z,18.24
2022-11-02T08:06:39.280Z,18.49
2022-11-02T08:09:05.836Z,19.31
2022-11-02T08:11:32.342Z,18.52
2022-11-02T08:13:59.128Z,20.13
2022-11-02T08:16:25.632Z,19.28
2022-11-02T08:18:52.095Z,20.01
2022-11-02T08:21:18.639Z,20.01
2022-11-02T08:23:45.167Z,21.42
2022-11-02T08:26:12.229Z,20.03
2022-11-02T08:28:40.363Z,21.43
2022-11-02T08:31:08.718Z,19.81
2022-11-02T08:33:35.254Z,20.65
2022-11-02T08:36:04.164Z,22.55
2022-11-02T08:38:31.423Z,23.29
2022-11-02T08:40:57.915Z,23.67
2022-11-02T08:43:24.468Z,24.92
2022-11-02T08:48:37.658Z,25.12
2022-11-02T08:51:05.640Z,25.10
2022-11-02T08:53:32.226Z,23.55
2022-11-02T08:55:59.195Z,23.29
2022-11-02T08:58:26.041Z,22.44
2022-11-02T09:15:57.632Z,20.08
2022-11-02T09:18:24.712Z,20.72
2022-11-02T09:20:51.689Z,20.76
2022-11-02T09:23:20.324Z,21.80
2022-11-02T09:25:47.519Z,22.47
2022-11-02T09:28:15.674Z,20.26
2022-11-02T09:30:42.920Z,20.97
2022-11-02T09:33:10.057Z,21.99
2022-11-02T09:35:39.632Z,22.53
2022-11-02T09:38:06.624Z,22.95
2022-11-02T09:40:47.003Z,22.68
2022-11-02T09:43:38.945Z,21.71
2022-11-02T09:46:15.520Z,20.22
2022-11-02T09:48:45.746Z,19.46
2022-11-02T09:51:36.025Z,20.11
2022-11-02T09:54:17.849Z,18.19
2022-11-02T09:56:45.318Z,17.73
2022-11-02T09:59:17.397Z,17.11
2022-11-02T10:02:02.519Z,16.89
2022-11-02T10:05:06.708Z,16.64
2022-11-02T10:07:59.912Z,16.18
2022-11-02T10:10:48.224Z,16.02
2022-11-02T10:13:37.112Z,16.08
2022-11-02T10:16:23.991Z,16.53
2022-11-02T10:18:52.425Z,18.52
2022-11-02T10:21:31.678Z,19.70
2022-11-02T10:24:03.155Z,19.80
2022-11-02T10:26:34.393Z,17.86
2022-11-02T10:29:19.415Z,17.20
2022-11-02T10:31:49.170Z,17.35
2022-11-02T10:34:28.974Z,17.49
2022-11-02T10:37:31.432Z,17.22
2022-11-02T10:40:18.722Z,17.25
2022-11-02T10:43:04.710Z,17.29
2022-11-02T10:45:41.685Z,18.47
2022-11-02T10:48:15.293Z,18.56
2022-11-02T10:50:48.346Z,18.50
2022-11-02T10:56:12.245Z,20.17
2022-11-02T10:58:44.891Z,19.55
2022-11-02T11:01:13.072Z,18.03
2022-11-02T11:03:53.103Z,17.51
2022-11-02T11:06:19.968Z,17.79
2022-11-02T11:08:49.816Z,18.38
2022-11-02T11:11:29.204Z,18.37
2022-11-02T11:16:55.545Z,18.67
2022-11-02T11:22:03.056Z,19.14
2022-11-02T11:24:31.785Z,19.06
2022-11-02T11:27:17.919Z,19.67
2022-11-02T11:29:52.555Z,20.85
2022-11-02T11:32:30.475Z,21.34
2022-11-02T11:35:03.219Z,21.33
2022-11-02T11:37:30.082Z,22.39
2022-11-02T11:40:03.640Z,21.52
2022-11-02T11:42:35.652Z,21.99
2022-11-02T11:45:08.307Z,21.33
2022-11-02T11:47:37.588Z,20.60
2022-11-02T11:50:12.490Z,19.80
2022-11-02T11:52:45.352Z,19.91
2022-11-02T11:55:23.041Z,20.72
2022-11-02T11:58:14.652Z,21.54
2022-11-02T12:00:41.234Z,20.28
2022-11-02T12:03:12.630Z,19.10
2022-11-02T12:06:06.689Z,18.13
2022-11-02T12:08:44.062Z,18.10
2022-11-02T12:11:30.881Z,18.69
2022-11-02T12:14:36.399Z,17.75
2022-11-02T12:17:08.973Z,17.47
2022-11-02T12:19:47.157Z,17.62
2022-11-02T12:22:24.280Z,17.30
2022-11-02T12:24:59.077Z,17.33
2022-11-02T12:27:31.429Z,17.36
2022-11-02T12:30:28.041Z,17.98
2022-11-02T12:33:19.957Z,19.23
2022-11-02T12:36:03.158Z,20.98
2022-11-02T12:38:39.956Z,21.28
2022-11-02T12:41:10.950Z,21.53
2022-11-02T12:43:50.223Z,21.39
2022-11-02T12:46:38.976Z,20.01
2022-11-02T12:49:06.870Z,19.63
2022-11-02T12:51:39.084Z,18.72
2022-11-02T12:54:12.790Z,18.58
2022-11-02T12:56:49.583Z,18.32
2022-11-02T12:59:27.985Z,19.00
2022-11-02T13:02:04.188Z,19.15
2022-11-02T13:04:40.779Z,19.91
2022-11-02T13:07:20.501Z,19.76
2022-11-02T13:09:59.337Z,19.25
2022-11-02T13:12:26.781Z,19.73
2022-11-02T13:14:55.649Z,19.95
2022-11-02T13:17:31.240Z,20.37
2022-11-02T13:20:06.319Z,19.62
2022-11-02T13:22:38.662Z,19.50
2022-11-02T13:25:17.809Z,19.58
2022-11-02T13:27:51.661Z,19.53
2022-11-02T13:30:18.856Z,18.73
2022-11-02T13:33:11.403Z,18.26
2022-11-02T13:35:41.085Z,17.81
2022-11-02T13:38:25.896Z,17.84
2022-11-02T13:41:08.350Z,18.12
2022-11-02T13:44:01.260Z,18.47
2022-11-02T13:46:54.653Z,18.55
2022-11-02T13:49:31.642Z,18.78
2022-11-02T13:52:13.866Z,18.41
2022-11-02T13:54:48.204Z,18.16
2022-11-02T13:57:36.063Z,18.42
2022-11-02T14:00:06.330Z,18.37
2022-11-02T14:02:36.106Z,18.12
2022-11-02T14:05:02.710Z,17.32
2022-11-02T14:07:39.396Z,17.01
2022-11-02T14:10:16.433Z,16.78
2022-11-02T14:12:45.193Z,16.73
2022-11-02T14:15:14.565Z,17.33
2022-11-02T14:17:53.366Z,17.01
2022-11-02T14:20:33.403Z,16.48
2022-11-02T14:23:14.796Z,16.37
2022-11-02T14:25:55.277Z,16.75
2022-11-02T14:28:25.652Z,16.96
2022-11-02T14:31:02.075Z,16.97
2022-11-02T14:33:53.255Z,16.83
2022-11-02T14:36:20.069Z,16.88
2022-11-02T14:39:18.452Z,17.05
2022-11-02T14:41:57.512Z,16.69
2022-11-02T14:44:33.514Z,16.79
2022-11-02T14:47:08.839Z,16.60
2022-11-02T14:49:40.686Z,16.48
2022-11-02T14:52:16.222Z,16.39
2022-11-02T14:54:49.004Z,16.31
2022-11-02T14:57:22.804Z,16.29
2022-11-02T14:59:51.287Z,16.19
2022-11-02T15:02:40.324Z,16.02
2022-11-02T15:05:21.000Z,15.88
2022-11-02T15:07:59.670Z,15.45
2022-11-02T15:10:32.416Z,15.30
2022-11-02T15:13:18.956Z,15.17
2022-11-02T15:15:51.898Z,15.18
2022-11-02T15:18:30.471Z,14.94
2022-11-02T15:21:17.111Z,14.76
2022-11-02T15:23:50.181Z,14.56
2022-11-02T15:26:23.340Z,14.45
2022-11-02T15:28:50.566Z,14.38
2022-11-02T15:31:25.901Z,14.25
2022-11-02T15:33:56.808Z,14.15
2022-11-02T15:36:37.540Z,13.97
2022-11-02T15:39:08.309Z,13.89
2022-11-02T15:41:53.598Z,13.74
2022-11-02T15:44:41.775Z,13.60
2022-11-02T15:47:45.188Z,13.37
2022-11-02T15:50:23.951Z,13.17
2022-11-02T15:53:27.807Z,13.10
2022-11-02T15:56:14.132Z,12.91
2022-11-02T15:59:09.826Z,12.77
2022-11-02T16:01:37.672Z,12.66
2022-11-02T16:04:07.027Z,12.56
2022-11-02T16:06:43.375Z,12.49
2022-11-02T16:09:30.723Z,12.35
2022-11-02T16:12:04.130Z,12.24
2022-11-02T16:14:31.841Z,12.17
2022-11-02T16:16:58.512Z,11.97
2022-11-02T16:19:24.965Z,11.86
2022-11-02T16:21:51.704Z,11.71
2022-11-02T16:24:18.715Z,11.60
2022-11-02T16:26:46.016Z,11.54
2022-11-02T16:29:27.630Z,11.53
2022-11-02T16:31:54.159Z,11.40
2022-11-02T16:34:22.683Z,11.20
2022-11-02T16:36:49.261Z,11.13
2022-11-02T16:39:22.943Z,10.95
2022-11-02T16:41:52.364Z,10.89
2022-11-02T16:44:26.732Z,10.78
2022-11-02T16:46:59.154Z,10.75
2022-11-02T16:49:27.522Z,10.74
2022-11-02T16:51:58.524Z,10.63
2022-11-02T16:54:34.043Z,10.51
2022-11-02T16:57:27.729Z,10.40
2022-11-02T16:59:59.590Z,10.25
2022-11-02T17:02:40.042Z,10.18
2022-11-02T17:05:15.080Z,10.08
2022-11-02T17:07:43.353Z,10.03
2022-11-02T17:10:20.085Z,10.04
2022-11-02T17:12:47.964Z,9.92
2022-11-02T17:15:17.999Z,9.85
2022-11-02T17:17:44.904Z,9.91
2022-11-02T17:20:11.758Z,9.80
2022-11-02T17:22:39.830Z,9.77
2022-11-02T17:25:19.825Z,9.71
2022-11-02T17:27:46.602Z,9.62
2022-11-02T17:30:39.497Z,9.48
2022-11-02T17:33:29.681Z,9.36
2022-11-02T17:36:07.165Z,9.32
2022-11-02T17:38:33.989Z,9.30
2022-11-02T17:41:00.851Z,9.22
2022-11-02T17:43:27.488Z,9.19
2022-11-02T17:45:58.879Z,9.15
2022-11-02T17:48:28.670Z,9.18
2022-11-02T17:50:56.468Z,9.08
2022-11-02T17:53:24.166Z,9.07
2022-11-02T17:55:51.400Z,9.00
2022-11-02T17:58:17.977Z,9.11
2022-11-02T18:00:44.622Z,8.98
2022-11-02T18:03:17.400Z,8.86
2022-11-02T18:05:48.325Z,8.82
2022-11-02T18:08:16.889Z,8.81
2022-11-02T18:10:45.172Z,8.66
2022-11-02T18:13:13.111Z,8.58
2022-11-02T18:15:39.947Z,8.55
2022-11-02T18:18:06.619Z,8.41
2022-11-02T18:20:38.648Z,8.27
2022-11-02T18:23:08.331Z,8.35
2022-11-02T18:25:35.017Z,8.31
2022-11-02T18:28:02.401Z,8.25
2022-11-02T18:30:29.531Z,8.26
2022-11-02T18:32:57.070Z,8.22
2022-11-02T18:35:24.550Z,8.17
2022-11-02T18:37:51.008Z,8.10
2022-11-02T18:40:19.906Z,8.05
2022-11-02T18:42:47.097Z,8.02
2022-11-02T18:45:15.001Z,7.94
2022-11-02T18:47:42.172Z,8.01
2022-11-02T18:50:11.198Z,7.95
2022-11-02T18:52:37.806Z,7.82
2022-11-02T18:55:05.381Z,7.78
2022-11-02T18:57:32.487Z,7.75
2022-11-02T18:59:59.763Z,7.76
2022-11-02T19:02:26.455Z,7.70
2022-11-02T19:04:52.942Z,7.73
2022-11-02T19:07:45.790Z,7.68
2022-11-02T19:10:12.240Z,7.60
2022-11-02T19:12:38.715Z,7.53
2022-11-02T19:15:06.053Z,7.53
2022-11-02T19:17:36.721Z,7.49
2022-11-02T19:20:03.531Z,7.52
2022-11-02T19:22:30.125Z,7.43
2022-11-02T19:24:56.569Z,7.42
2022-11-02T19:27:24.364Z,7.37
2022-11-02T19:29:51.136Z,7.34
2022-11-02T19:32:17.908Z,7.31
2022-11-02T19:34:44.725Z,7.31
2022-11-02T19:37:14.157Z,7.33
2022-11-02T19:39:40.864Z,7.27
2022-11-02T19:42:07.471Z,7.22
2022-11-02T19:44:38.364Z,7.18
2022-11-02T19:47:09.061Z,7.24
2022-11-02T19:49:35.665Z,7.20
2022-11-02T19:52:02.543Z,7.14
2022-11-02T19:54:29.034Z,7.14
2022-11-02T19:57:05.962Z,7.17
2022-11-02T19:59:32.351Z,7.18
2022-11-02T20:01:59.201Z,7.18
2022-11-02T20:04:26.788Z,7.15
2022-11-02T20:06:53.386Z,7.12
2022-11-02T20:09:20.099Z,7.13
2022-11-02T20:11:47.358Z,7.02
2022-11-02T20:14:15.546Z,7.02
2022-11-02T20:16:42.437Z,6.97
2022-11-02T20:19:09.132Z,6.90
2022-11-02T20:21:41.508Z,6.86
2022-11-02T20:24:10.397Z,6.84
2022-11-02T20:26:38.571Z,6.86
2022-11-02T20:29:06.700Z,6.89
2022-11-02T20:31:35.816Z,6.84
2022-11-02T20:34:03.944Z,6.85
2022-11-02T20:36:30.640Z,6.81
2022-11-02T20:38:57.282Z,6.78
2022-11-02T20:41:24.533Z,6.81
2022-11-02T20:43:53.171Z,6.75
2022-11-02T20:46:41.054Z,6.74
2022-11-02T20:49:20.237Z,6.78
2022-11-02T20:51:52.715Z,6.80
2022-11-02T20:54:22.574Z,6.86
2022-11-02T20:56:51.250Z,6.84
2022-11-02T20:59:17.859Z,6.76
2022-11-02T21:01:45.010Z,6.69
2022-11-02T21:04:18.264Z,6.65
2022-11-02T21:06:46.010Z,6.63
2022-11-02T21:09:12.548Z,6.58
2022-11-02T21:11:57.728Z,6.76
2022-11-02T21:14:24.559Z,6.71
2022-11-02T21:16:51.149Z,6.61
2022-11-02T21:19:17.910Z,6.58
2022-11-02T21:21:45.053Z,6.63
2022-11-02T21:24:11.943Z,6.56
2022-11-02T21:26:39.488Z,6.71
2022-11-02T21:29:05.865Z,6.62
2022-11-02T21:31:32.292Z,6.63
2022-11-02T21:33:58.981Z,6.58
2022-11-02T21:36:25.435Z,6.58
2022-11-02T21:38:51.867Z,6.50
2022-11-02T21:41:20.464Z,6.64
2022-11-02T21:43:47.276Z,7.00
2022-11-02T21:46:13.671Z,6.88
2022-11-02T21:48:40.158Z,6.88
2022-11-02T21:51:09.518Z,6.74
2022-11-02T21:53:38.867Z,6.69
2022-11-02T21:56:20.649Z,6.55
2022-11-02T21:58:47.785Z,6.44
2022-11-02T22:01:35.326Z,6.44
2022-11-02T22:04:02.349Z,6.39
2022-11-02T22:06:31.461Z,6.33
2022-11-02T22:08:59.469Z,6.28
2022-11-02T22:11:28.966Z,6.30
2022-11-02T22:13:57.870Z,6.22
2022-11-02T22:16:25.858Z,6.31
2022-11-02T22:18:54.610Z,6.37
2022-11-02T22:21:21.151Z,6.60
2022-11-02T22:23:48.420Z,6.64
2022-11-02T22:26:17.088Z,6.73
2022-11-02T22:28:45.179Z,6.67
2022-11-02T22:31:23.590Z,6.62
2022-11-02T22:33:53.325Z,6.63
2022-11-02T22:36:22.036Z,6.58
2022-11-02T22:38:48.711Z,6.44
2022-11-02T22:41:16.228Z,6.28
2022-11-02T22:43:42.760Z,6.13
2022-11-02T22:46:09.916Z,6.11
2022-11-02T22:48:36.396Z,6.00
2022-11-02T22:51:04.253Z,5.97
2022-11-02T22:53:30.662Z,5.89
2022-11-02T22:56:04.239Z,5.81
2022-11-02T22:58:32.952Z,5.85
2022-11-02T23:00:59.631Z,5.85
2022-11-02T23:03:26.047Z,5.87
2022-11-02T23:05:52.469Z,5.81
2022-11-02T23:08:19.290Z,5.74
2022-11-02T23:11:04.334Z,5.68
2022-11-02T23:13:30.741Z,5.63
2022-11-02T23:16:23.320Z,5.56
2022-11-02T23:19:10.591Z,5.63
2022-11-02T23:22:20.041Z,5.60
2022-11-02T23:25:12.956Z,5.54
2022-11-02T23:28:03.455Z,5.45
2022-11-02T23:30:53.750Z,5.51
2022-11-02T23:33:20.956Z,5.68
2022-11-02T23:36:06.163Z,5.65
2022-11-02T23:38:51.232Z,5.71
2022-11-02T23:41:18.697Z,5.78
2022-11-02T23:43:46.819Z,5.75
2022-11-02T23:46:13.387Z,5.71
2022-11-02T23:48:44.975Z,5.59
2022-11-02T23:51:32.536Z,5.48
2022-11-02T23:54:19.686Z,5.37
2022-11-02T23:56:46.217Z,5.53
2022-11-02T23:59:17.258Z,5.35
